Terminal Aerodrome Forecast
Issued by NWS Sterling, VA

Home | Current Version | Previous Version | Text Only | Print | Product List | Glossary On
Versions: 1 2 3 4 5 6 7 8 9 10 11 12 13 14 15 16 17 18 19 20
000
FTUS41 KLWX 292332
TAFDCA
TAF
KDCA 292332Z 3000/3024 14005KT 5SM SHRA BR OVC035
      TEMPO 3000/3003 2SM +SHRA BKN008 OVC035
     FM300300 16005KT 3SM SHRA BR OVC015
     FM300700 VRB03KT 5SM -SHRA BR OVC008
     FM301600 VRB03KT P6SM OVC035=

USA.gov is the U.S. government's official web portal to all federal, state and local government web resources and services.